createdAt,value
2023-04-15T00:03:59.822Z,73.36
2023-04-15T00:09:56.822Z,73.40
2023-04-15T00:15:00.583Z,73.51
2023-04-15T00:20:06.950Z,73.47
2023-04-15T00:25:10.874Z,73.45
2023-04-15T00:30:14.684Z,73.58
2023-04-15T00:35:19.184Z,73.64
2023-04-15T00:40:25.328Z,73.56
2023-04-15T00:52:33.774Z,73.70
2023-04-15T00:57:38.223Z,73.71
2023-04-15T01:02:42.708Z,73.79
2023-04-15T01:21:43.860Z,74.00
2023-04-15T01:26:50.314Z,74.04
2023-04-15T01:32:31.548Z,74.08
2023-04-15T01:37:35.856Z,74.20
2023-04-15T01:42:48.432Z,74.18
2023-04-15T01:47:52.134Z,74.14
2023-04-15T01:53:02.366Z,74.23
2023-04-15T01:58:06.514Z,74.25
2023-04-15T02:03:10.319Z,74.36
2023-04-15T02:08:13.871Z,74.44
2023-04-15T02:13:17.658Z,74.51
2023-04-15T02:18:22.054Z,74.60
2023-04-15T02:23:53.611Z,74.72
2023-04-15T02:28:57.681Z,74.78
2023-04-15T02:48:44.373Z,74.86
2023-04-15T02:54:06.438Z,74.89
2023-04-15T02:59:10.060Z,74.97
2023-04-15T03:11:41.093Z,75.03
2023-04-15T03:16:44.729Z,74.99
2023-04-15T03:21:48.622Z,74.89
2023-04-15T03:27:18.959Z,74.90
2023-04-15T03:32:22.608Z,74.83
2023-04-15T03:37:31.873Z,74.71
2023-04-15T03:42:35.452Z,74.64
2023-04-15T03:47:45.073Z,74.51
2023-04-15T03:52:50.692Z,74.44
2023-04-15T03:57:54.923Z,74.39
2023-04-15T04:02:58.935Z,74.41
2023-04-15T04:08:14.242Z,74.53
2023-04-15T04:13:18.163Z,74.44
2023-04-15T04:18:23.039Z,74.49
2023-04-15T04:23:27.271Z,74.50
2023-04-15T04:28:33.862Z,74.49
2023-04-15T04:33:37.484Z,74.35
2023-04-15T04:38:47.292Z,74.33
2023-04-15T04:43:51.266Z,74.07
2023-04-15T04:48:54.946Z,73.92
2023-04-15T04:53:59.131Z,73.90
2023-04-15T04:59:09.814Z,73.88
2023-04-15T05:04:13.525Z,73.82
2023-04-15T05:09:23.198Z,73.85
2023-04-15T05:14:26.924Z,73.81
2023-04-15T05:19:30.852Z,73.80
2023-04-15T05:24:34.507Z,73.68
2023-04-15T05:30:03.386Z,73.69
2023-04-15T05:35:08.444Z,73.86
2023-04-15T05:40:12.687Z,73.77
2023-04-15T05:45:16.318Z,73.87
2023-04-15T05:50:21.566Z,73.76
2023-04-15T05:55:25.401Z,73.71
2023-04-15T06:00:29.360Z,73.71
2023-04-15T06:05:33.357Z,73.76
2023-04-15T06:10:38.011Z,73.84
2023-04-15T06:23:46.563Z,73.43
2023-04-15T06:28:50.414Z,73.17
2023-04-15T06:38:37.694Z,72.64
2023-04-15T06:55:10.373Z,72.29
2023-04-15T07:00:15.253Z,72.30
2023-04-15T07:05:19.706Z,72.12
2023-04-15T07:20:18.348Z,71.64
2023-04-15T07:25:22.078Z,71.55
2023-04-15T07:30:31.729Z,71.75
2023-04-15T07:35:35.496Z,71.87
2023-04-15T07:54:54.687Z,71.92
2023-04-15T08:04:44.471Z,72.06
2023-04-15T08:16:51.959Z,71.84
2023-04-15T08:21:56.811Z,71.77
2023-04-15T08:27:02.253Z,71.68
2023-04-15T08:32:07.021Z,71.91
2023-04-15T08:37:11.489Z,71.58
2023-04-15T08:42:47.108Z,71.29
2023-04-15T08:47:57.034Z,70.94
2023-04-15T08:53:01.576Z,70.97
2023-04-15T08:58:07.154Z,70.91
2023-04-15T09:03:11.738Z,71.01
2023-04-15T09:09:58.751Z,70.91
2023-04-15T09:15:04.737Z,71.04
2023-04-15T09:20:15.073Z,71.32
2023-04-15T09:32:17.249Z,71.67
2023-04-15T09:37:36.921Z,71.46
2023-04-15T09:42:57.445Z,71.82
2023-04-15T09:48:21.294Z,72.04
2023-04-15T10:15:08.100Z,72.65
2023-04-15T10:20:16.624Z,72.68
2023-04-15T10:32:22.658Z,73.02
2023-04-15T10:37:39.818Z,73.04
2023-04-15T10:42:44.642Z,73.12
2023-04-15T10:48:47.236Z,73.00
2023-04-15T10:55:17.147Z,73.10
2023-04-15T11:00:32.286Z,73.21
2023-04-15T11:13:33.800Z,73.63
2023-04-15T11:18:57.898Z,73.64
2023-04-15T11:24:53.020Z,73.68
2023-04-15T11:30:27.041Z,73.94
2023-04-15T11:35:31.545Z,73.98
2023-04-15T11:40:36.256Z,73.93
2023-04-15T11:46:00.074Z,73.92
2023-04-15T11:51:10.224Z,73.57
2023-04-15T11:57:04.483Z,73.52
2023-04-15T12:09:17.370Z,74.79
2023-04-15T12:29:44.464Z,76.01
2023-04-15T12:34:54.780Z,76.05
2023-04-15T12:39:58.318Z,76.27
2023-04-15T12:52:09.936Z,76.27
2023-04-15T12:58:33.766Z,76.35
2023-04-15T13:03:37.779Z,76.50
2023-04-15T13:09:33.438Z,76.44
2023-04-15T13:14:37.169Z,76.50
2023-04-15T13:19:41.026Z,76.50
2023-04-15T13:24:44.651Z,76.54
2023-04-15T13:29:48.260Z,76.46
2023-04-15T13:49:12.625Z,75.57
2023-04-15T13:54:16.271Z,75.32
2023-04-15T14:08:15.184Z,76.14
2023-04-15T14:13:19.973Z,76.39
2023-04-15T14:18:23.650Z,76.45
2023-04-15T14:23:27.542Z,76.64
2023-04-15T14:28:45.234Z,76.85
2023-04-15T14:42:33.671Z,76.76
2023-04-15T14:47:38.570Z,77.06
2023-04-15T14:53:23.280Z,77.28
2023-04-15T14:58:26.921Z,77.39
2023-04-15T15:10:49.049Z,77.25
2023-04-15T15:15:54.169Z,77.35
2023-04-15T15:39:51.091Z,77.25
2023-04-15T15:44:56.294Z,77.50
2023-04-15T15:57:05.456Z,78.14
2023-04-15T16:07:18.607Z,78.31
2023-04-15T16:32:44.684Z,78.46
2023-04-15T16:38:38.336Z,78.50
2023-04-15T16:44:31.865Z,78.50
2023-04-15T16:49:35.865Z,78.75
2023-04-15T16:54:41.661Z,78.75
2023-04-15T16:59:45.153Z,78.80
2023-04-15T17:04:48.619Z,78.80
2023-04-15T17:09:53.793Z,78.97
2023-04-15T17:14:58.329Z,79.22
2023-04-15T17:20:02.075Z,79.22
2023-04-15T17:32:47.630Z,79.45
2023-04-15T17:45:19.981Z,79.94
2023-04-15T18:06:01.757Z,80.14
2023-04-15T18:11:24.432Z,80.71
2023-04-15T18:16:28.112Z,80.44
2023-04-15T18:21:32.348Z,80.31
2023-04-15T18:26:36.542Z,80.25
2023-04-15T18:31:40.227Z,80.43
2023-04-15T18:36:44.019Z,80.19
2023-04-15T18:41:51.250Z,80.29
2023-04-15T18:46:54.905Z,80.19
2023-04-15T18:51:58.559Z,80.04
2023-04-15T18:57:52.724Z,80.08
2023-04-15T19:02:57.039Z,79.99
2023-04-15T19:08:01.489Z,80.20
2023-04-15T19:13:06.642Z,80.46
2023-04-15T19:18:10.994Z,80.54
2023-04-15T19:23:15.346Z,80.68
2023-04-15T19:28:19.112Z,80.78
2023-04-15T19:33:23.186Z,80.83
2023-04-15T19:38:26.975Z,80.89
2023-04-15T19:43:46.226Z,80.98
2023-04-15T19:48:50.262Z,80.88
2023-04-15T19:54:36.401Z,80.85
2023-04-15T19:59:40.059Z,80.89
2023-04-15T20:05:14.094Z,80.94
2023-04-15T20:10:47.225Z,81.04
2023-04-15T20:16:08.037Z,81.00
2023-04-15T20:21:11.737Z,81.11
2023-04-15T20:26:18.086Z,81.07
2023-04-15T20:31:23.311Z,81.21
2023-04-15T20:36:53.113Z,81.36
2023-04-15T20:42:03.277Z,81.15
2023-04-15T20:47:08.592Z,81.07
2023-04-15T20:52:18.682Z,80.88
2023-04-15T20:58:39.605Z,80.86
2023-04-15T21:03:43.313Z,80.69
2023-04-15T21:08:47.340Z,80.57
2023-04-15T21:13:52.150Z,80.64
2023-04-15T21:33:39.034Z,80.93
2023-04-15T21:38:42.707Z,81.02
2023-04-15T21:44:26.693Z,80.96
2023-04-15T21:49:30.442Z,80.82
2023-04-15T22:01:42.453Z,81.19
2023-04-15T22:22:21.806Z,81.25
2023-04-15T22:27:39.299Z,81.44
2023-04-15T22:32:43.297Z,81.50
2023-04-15T22:37:53.367Z,81.50
2023-04-15T22:42:57.128Z,81.29
2023-04-15T22:48:00.866Z,81.21
2023-04-15T22:53:04.628Z,81.31
2023-04-15T22:58:08.227Z,81.26
2023-04-15T23:03:11.926Z,81.11
2023-04-15T23:08:34.808Z,81.17
2023-04-15T23:13:38.562Z,81.26
2023-04-15T23:18:42.394Z,81.38
2023-04-15T23:23:46.123Z,81.42
2023-04-15T23:29:14.755Z,81.64
2023-04-15T23:34:18.177Z,81.63
2023-04-15T23:39:21.826Z,81.61
2023-04-15T23:44:25.488Z,81.73
2023-04-15T23:49:29.121Z,81.69
2023-04-15T23:54:32.970Z,81.64
2023-04-15T23:59:36.969Z,81.64
